Warning: Javascript must be enabled to use all the features on this page!


Page Loading - Please Wait...

Click to hideNews Bulletins

Peak Streamflow for the Nation

USGS 03230500 Big Darby Creek at Darbyville OH

Pickaway County, Ohio
Hydrologic Unit Code 05060001
Latitude  39°42'02", Longitude  83°06'37" NAD27
Drainage area 534  square miles
Contributing drainage area 534  square miles
Gage datum 713.17 feet above NAVD88
Output formats
Table
Graph
Tab-separated file
peakfq (watstore) format
Reselect output format
Water
Year
Date Gage
Height
(feet)
Stream-
flow
(cfs)
1922 1922-04-16 10.20 8,590
1923 1923-03-23 6.30 2,880
1924 1924-06-09 13.70 19,100
1925 1925-03-20 6.40 2,990
1926 1926-04-08 8.90 6,420
1927 1927-01-21 11.30 11,400
1928 1927-12-14 10.50 8,990
1929 1929-02-27 15.901 22,600
1930 1930-01-10 10.40 8,780
1931 1931-08-14 7.00 3,380
1932 1931-12-14 9.40 7,080
1933 1933-05-14 12.70 15,400
1934 1934-03-05 6.90 3,600
1935 1935-05-04 8.50 5,930
1936 1936-02-26 11.80 12,100
1938 1938-04-08 11.50 11,900
1939 1939-06-20 9.96 7,800
1940 1940-04-20 11.10 11,000
1941 1941-06-04 7.00 3,560
1942 1942-04-11 8.60 5,510
1943 1943-03-20 12.60 15,800
1944 1944-04-12 10.60 9,730
1945 1945-03-07 12.76 14,900
1946 1946-06-18 8.86 5,960
1947 1947-06-03 12.47 14,800
1948 1948-04-14 11.40 11,600
1949 1949-01-06 10.70 9,820
1950 1950-02-15 11.31 11,400
1951 1951-02-22 12.57 14,300
1952 1952-01-27 14.70 21,600
1953 1953-05-23 6.73 3,430
1954 1954-07-21 7.17 3,680
1955 1955-03-23 9.27 6,650
1956 1956-02-27 10.25 8,250
1957 1957-04-05 12.83 13,800
1958 1958-06-11 11.08 9,700
1959 1959-01-22 17.94 49,000
1960 1960-02-11 8.33 4,730
1961 1961-04-27 10.68 8,900
1962 1962-02-28 10.70 8,790
1963 1963-03-06 13.92 17,600
1964 1964-03-11 14.31 19,400
1965 1965-04-25 9.43 5,930
1966 1966-02-12 9.27 4,580
1967 1967-03-07 10.48 6,250
1968 1968-05-28 11.29 7,620
1969 1969-05-20 10.92 6,960
1970 1970-04-03 11.91 8,740
1971 1971-02-23 10.62 6,470
1972 1972-05-10 10.53 6,330
1973 1973-06-21 12.02 8,940
1974 1974-04-04 10.81 6,780
1975 1975-02-25 15.07 17,500
1976 1976-02-19 10.31 5,990
1977 1977-04-04 10.90 6,920
1978 1978-03-17 11.89 8,680
1979 1979-09-15 14.00 14,000
1980 1980-06-04 12.32 9,580
1981 1981-04-13 11.02 7,130
1982 1982-03-17 9.67 5,320
1983 1983-05-03 10.56 6,930
1984 1984-03-22 10.46 6,250
1985 1985-02-25 11.59 8,130
1986 1985-11-28 10.82 6,810
1987 1986-10-06 10.88 6,900
1988 1988-02-03 9.16 4,840
1989 1989-04-05 10.75 6,690
1990 1990-06-10 11.45 7,880
1991 1990-12-31 13.64 13,0002
1992 1992-07-19 10.82 6,820
1993 1993-07-03 12.16 9,350
1994 1994-01-29 12.25 9,460
1995 1995-08-07 10.78 6,760
1996 1996-01-19 13.655 13,0002
1997 1997-06-03 15.625 23,700
1998 1998-06-29 14.77 17,100
1999 1999-01-24 10.33 6,630
2000 2000-04-09 11.50 8,930
2001 2001-05-20 10.97 7,750
2002 2001-12-19 10.36 6,680
2003 2003-09-03 9.79 6,150
2004 2004-01-06 14.01 15,500
2005 2005-01-07 15.63 21,300
2006 2006-03-14 10.72 7,780
2007 2007-03-03 12.58 11,600
2008 2008-03-21 12.63 12,000
2009 2009-02-13 9.17 5,480
2010 2010-03-15 9.41 5,780
2011 2011-03-07 11.79 10,000
2012 2011-12-07 12.45 11,600
2013 2013-03-13 8.72 4,940
2014 2013-12-23 12.44 11,600
2015 2015-06-22 11.46 9,290
2016 2015-12-29 10.18 6,810
2017 2017-05-07 8.06 4,260
2018 2018-04-05 13.32 13,900
2019 2019-05-19 12.04 10,600
2020 2020-03-21 13.38 14,100
2021 2021-05-11 10.22 6,860
?
  Peak Gage-Height Qualification Codes.
?
  Peak Streamflow Qualification Codes.